Time;durP1;ratioP1;P1;durP2;ratioP2;P2;SDS_P1;SDS_P2;PMS_P1;PMS_P2;Temp;Humidity;BMP_temperature;BMP_pressure;BME280_temperature;BME280_humidity;BME280_pressure;Samples;Min_cycle;Max_cycle;Signal;HPM_P1;HPM_P2
2020/12/01 00:00:38;;;;;;;84.53;39.45;;;6.00;99.90;;;;;;10429530;28;20400;-89
2020/12/01 00:05:40;;;;;;;81.53;42.40;;;6.00;99.90;;;;;;10429114;28;20146;-89
2020/12/01 00:10:42;;;;;;;;;;;6.00;99.90;;;;;;10429668;28;20099;-89
2020/12/01 00:15:43;;;;;;;69.50;37.55;;;6.00;99.90;;;;;;10461883;28;20293;-89
2020/12/01 00:20:45;;;;;;;54.22;32.38;;;6.10;99.90;;;;;;10426807;28;20408;-89
2020/12/01 00:25:47;;;;;;;74.65;39.63;;;6.20;99.90;;;;;;10427406;28;20403;-89
2020/12/01 00:30:48;;;;;;;92.70;43.90;;;6.30;99.90;;;;;;10427545;28;20057;-89
2020/12/01 00:35:50;;;;;;;42.90;28.85;;;6.30;99.90;;;;;;10428897;28;20158;-89
2020/12/01 00:40:52;;;;;;;66.25;36.08;;;6.40;99.90;;;;;;10444558;28;20053;-89
2020/12/01 00:45:54;;;;;;;48.25;29.17;;;6.30;99.90;;;;;;10427630;28;20385;-89
2020/12/01 00:50:56;;;;;;;58.88;33.22;;;6.30;99.90;;;;;;10444273;28;20502;-89
2020/12/01 00:55:57;;;;;;;52.30;31.00;;;6.30;99.90;;;;;;10427804;28;20056;-89
2020/12/01 01:00:59;;;;;;;41.65;27.05;;;6.30;99.90;;;;;;10410924;28;20072;-89
2020/12/01 01:06:00;;;;;;;73.90;35.97;;;6.20;99.90;;;;;;10426827;28;20480;-90
2020/12/01 01:11:02;;;;;;;47.63;28.48;;;6.20;99.90;;;;;;10443844;28;20052;-89
2020/12/01 01:16:04;;;;;;;40.92;26.58;;;6.30;99.90;;;;;;10427387;28;20061;-89
2020/12/01 01:21:06;;;;;;;36.72;22.48;;;6.30;99.90;;;;;;10443286;28;20060;-89
2020/12/01 01:26:08;;;;;;;41.35;25.05;;;6.30;99.90;;;;;;10424708;28;20045;-89
2020/12/01 01:31:09;;;;;;;;;;;6.50;99.90;;;;;;10425867;28;20141;-89
2020/12/01 01:36:11;;;;;;;28.85;17.52;;;6.60;99.90;;;;;;10458252;28;20378;-89
2020/12/01 01:41:12;;;;;;;31.58;17.15;;;6.60;99.90;;;;;;10425718;28;20049;-89
2020/12/01 01:46:39;;;;;;;32.08;16.85;;;6.70;99.90;;;;;;10425786;28;20059;-89
2020/12/01 01:51:49;;;;;;;24.40;13.50;;;6.80;99.90;;;;;;10441518;28;20053;-89
2020/12/01 01:56:57;;;;;;;22.90;13.77;;;6.80;99.90;;;;;;10441600;28;20047;-90
2020/12/01 02:02:01;;;;;;;30.55;13.07;;;6.80;99.90;;;;;;10439859;28;20132;-90
2020/12/01 02:07:05;;;;;;;33.30;14.80;;;6.80;99.90;;;;;;10439950;28;20063;-89
2020/12/01 02:12:07;;;;;;;24.63;10.25;;;6.80;99.90;;;;;;10456512;28;20052;-89
2020/12/01 02:17:37;;;;;;;33.97;12.43;;;6.80;99.90;;;;;;10440980;28;20136;-89
2020/12/01 02:22:48;;;;;;;23.05;10.10;;;6.80;99.90;;;;;;10440729;28;20515;-89
2020/12/01 02:27:53;;;;;;;26.80;6.47;;;6.80;99.90;;;;;;10441055;28;20068;-89
2020/12/01 02:32:54;;;;;;;24.58;6.15;;;6.60;99.90;;;;;;10439597;28;20044;-89
2020/12/01 02:37:56;;;;;;;34.60;6.80;;;6.50;99.90;;;;;;10407590;28;20049;-89
2020/12/01 02:42:59;;;;;;;31.05;7.63;;;6.40;99.90;;;;;;10407453;28;20056;-89
2020/12/01 02:48:01;;;;;;;25.63;5.60;;;6.40;99.90;;;;;;10439591;28;20052;-89
2020/12/01 02:53:02;;;;;;;17.75;4.07;;;6.30;99.90;;;;;;10407631;28;20060;-89
2020/12/01 02:58:04;;;;;;;18.90;5.10;;;6.40;99.90;;;;;;10439896;28;20055;-89
2020/12/01 03:03:05;;;;;;;20.80;5.15;;;6.40;99.90;;;;;;10406608;28;20075;-89
2020/12/01 03:08:07;;;;;;;25.17;4.75;;;6.20;99.90;;;;;;10424453;28;20135;-90
2020/12/01 03:13:08;;;;;;;18.83;3.63;;;6.20;99.90;;;;;;10439771;28;20131;-89
2020/12/01 03:18:10;;;;;;;20.67;4.32;;;6.10;99.90;;;;;;10423769;28;20057;-89
2020/12/01 03:23:12;;;;;;;16.80;3.75;;;6.10;99.90;;;;;;10445035;28;20057;-89
2020/12/01 16:27:09;;;;;;;6.93;3.47;;;7.90;99.90;;;;;;10454743;22;20852;-94
2020/12/01 16:32:15;;;;;;;10.18;3.65;;;7.90;99.90;;;;;;10487325;28;20053;-94
2020/12/01 16:37:53;;;;;;;8.80;3.55;;;7.80;99.90;;;;;;10471260;28;20152;-94
2020/12/01 16:43:35;;;;;;;7.55;3.53;;;7.80;99.90;;;;;;10471406;28;20052;-94
2020/12/01 16:48:48;;;;;;;4.07;3.30;;;7.70;99.90;;;;;;10473463;28;20521;-93
2020/12/01 16:54:20;;;;;;;8.35;3.85;;;7.70;99.90;;;;;;10486732;28;20076;-94
2020/12/01 16:59:28;;;;;;;7.72;4.85;;;7.70;99.90;;;;;;10487383;28;20087;-94
2020/12/01 17:04:43;;;;;;;7.57;4.50;;;7.60;99.90;;;;;;10487110;28;20056;-94
2020/12/01 17:10:20;;;;;;;5.47;4.85;;;7.60;99.90;;;;;;10485517;28;20053;-93
2020/12/01 17:15:30;;;;;;;10.82;5.28;;;7.50;99.90;;;;;;10469723;28;20434;-94
2020/12/01 17:20:34;;;;;;;11.85;5.68;;;7.50;99.90;;;;;;10485310;28;20067;-93
2020/12/01 17:25:37;;;;;;;6.90;5.40;;;7.50;99.90;;;;;;10450209;28;20131;-94
2020/12/01 17:30:57;;;;;;;8.00;6.85;;;7.50;99.90;;;;;;10465846;28;20079;-94
2020/12/01 17:36:23;;;;;;;10.70;7.15;;;7.50;99.90;;;;;;10493793;28;20106;-94
2020/12/01 17:42:25;;;;;;;10.55;7.90;;;7.40;99.90;;;;;;10468522;28;20136;-94
2020/12/01 17:47:41;;;;;;;10.48;7.95;;;7.40;99.90;;;;;;10459155;28;20139;-94
2020/12/01 17:52:58;;;;;;;15.98;8.80;;;7.40;99.90;;;;;;10469454;28;20059;-96
2020/12/01 17:58:02;;;;;;;14.68;10.68;;;7.40;99.90;;;;;;10484457;28;20135;-95
2020/12/01 18:03:19;;;;;;;14.57;8.85;;;7.40;99.90;;;;;;10468215;28;20080;-94
2020/12/01 18:08:28;;;;;;;14.20;9.98;;;7.30;99.90;;;;;;10467568;28;20056;-95
2020/12/01 18:13:32;;;;;;;11.30;9.60;;;7.40;99.90;;;;;;10451932;28;20123;-95
2020/12/01 18:18:45;;;;;;;13.90;10.25;;;7.30;99.90;;;;;;10426552;28;20072;-95
2020/12/01 18:24:12;;;;;;;13.02;9.07;;;7.30;99.90;;;;;;10426115;28;20057;-95
2020/12/01 18:29:28;;;;;;;13.40;9.55;;;7.40;99.90;;;;;;10426150;28;20056;-95
2020/12/01 18:34:53;;;;;;;14.40;10.65;;;7.40;99.90;;;;;;10425628;28;20049;-95
2020/12/01 18:39:55;;;;;;;12.20;9.85;;;7.40;99.90;;;;;;10451407;28;20076;-95
2020/12/01 18:45:31;;;;;;;13.20;9.85;;;7.30;99.90;;;;;;10488582;28;20098;-95
2020/12/01 18:50:34;;;;;;;11.32;9.55;;;7.30;99.90;;;;;;10473231;28;20049;-95
2020/12/01 18:55:36;;;;;;;15.25;11.90;;;7.40;99.90;;;;;;10457368;28;20083;-95
2020/12/01 19:00:38;;;;;;;15.15;10.30;;;7.30;99.90;;;;;;10466716;28;20056;-95
2020/12/01 19:05:41;;;;;;;14.27;10.43;;;7.30;99.90;;;;;;10466442;28;20053;-94
2020/12/01 19:10:43;;;;;;;11.15;9.75;;;7.20;99.90;;;;;;10465998;28;20052;-94
2020/12/01 19:15:45;;;;;;;12.10;9.80;;;7.20;99.90;;;;;;10466608;28;20415;-94
2020/12/01 19:20:46;;;;;;;11.55;8.40;;;7.20;99.90;;;;;;10465372;28;20144;-95
2020/12/01 19:25:48;;;;;;;10.27;8.23;;;7.20;99.90;;;;;;10465321;28;20076;-95
2020/12/01 19:30:50;;;;;;;;;;;7.20;99.90;;;;;;10469632;28;20140;-96
2020/12/01 19:35:51;;;;;;;12.15;9.25;;;7.10;99.90;;;;;;10483223;28;19970;-95
2020/12/01 19:40:56;;;;;;;9.73;8.57;;;7.10;99.90;;;;;;10436159;28;20467;-95
2020/12/01 19:45:58;;;;;;;10.73;9.60;;;7.00;99.90;;;;;;10465064;28;20076;-95
2020/12/01 19:51:00;;;;;;;12.00;9.27;;;7.00;99.90;;;;;;10447872;28;20471;-95
2020/12/01 19:56:01;;;;;;;12.68;10.63;;;7.00;99.90;;;;;;10465033;28;20110;-95
2020/12/01 20:01:04;;;;;;;13.43;10.13;;;6.90;99.90;;;;;;10464261;28;20530;-96
2020/12/01 20:06:05;;;;;;;13.40;9.73;;;6.90;99.90;;;;;;10469372;28;20143;-96
2020/12/01 20:11:16;;;;;;;13.25;11.10;;;6.80;99.90;;;;;;10472138;28;20055;-95
2020/12/01 20:16:18;;;;;;;14.52;11.65;;;6.70;99.90;;;;;;10472626;28;20084;-95
2020/12/01 20:21:20;;;;;;;13.57;10.60;;;6.70;99.90;;;;;;10472398;28;20056;-95
2020/12/01 20:26:22;;;;;;;12.15;10.30;;;6.70;99.90;;;;;;10471433;28;20139;-95
2020/12/01 20:31:25;;;;;;;16.75;12.13;;;6.60;99.90;;;;;;10455073;28;20067;-95
2020/12/01 20:36:45;;;;;;;16.13;13.00;;;6.70;99.90;;;;;;10471083;28;20063;-95
2020/12/01 20:41:47;;;;;;;19.13;13.75;;;6.60;99.90;;;;;;10488557;28;20056;-95
2020/12/01 20:46:48;;;;;;;16.63;13.57;;;6.60;99.90;;;;;;10470327;28;20079;-94
2020/12/01 20:51:52;;;;;;;17.48;13.57;;;6.60;99.90;;;;;;10437953;28;20080;-94
2020/12/01 20:56:55;;;;;;;17.90;14.48;;;6.50;99.90;;;;;;10470757;28;20652;-95
2020/12/01 21:01:58;;;;;;;17.30;13.88;;;6.60;99.90;;;;;;10470808;28;20060;-95
2020/12/01 21:07:00;;;;;;;18.35;14.90;;;6.50;99.90;;;;;;10469532;28;20233;-94
2020/12/01 21:12:15;;;;;;;20.17;14.35;;;6.50;99.90;;;;;;10469767;28;20407;-95
2020/12/01 21:17:19;;;;;;;21.42;13.77;;;6.50;99.90;;;;;;10469328;28;20139;-95
2020/12/01 21:22:33;;;;;;;15.38;12.80;;;6.50;99.90;;;;;;10469081;28;20067;-95
2020/12/01 21:27:58;;;;;;;18.73;14.43;;;6.50;99.90;;;;;;10468968;28;20445;-95
2020/12/01 21:33:05;;;;;;;21.15;14.88;;;6.40;99.90;;;;;;10469544;28;20457;-95
2020/12/01 21:38:09;;;;;;;24.98;16.45;;;6.40;99.90;;;;;;10468766;28;20056;-95
2020/12/01 21:43:37;;;;;;;26.67;17.92;;;6.40;99.90;;;;;;10452721;28;20053;-95
2020/12/01 21:48:39;;;;;;;31.88;19.85;;;6.40;99.90;;;;;;10468200;28;20053;-95
2020/12/01 21:53:59;;;;;;;;;;;6.30;99.90;;;;;;10451885;28;20139;-95
2020/12/01 21:59:33;;;;;;;29.25;19.27;;;6.30;99.90;;;;;;10468108;28;20066;-95
2020/12/01 22:05:12;;;;;;;33.15;19.85;;;6.20;99.90;;;;;;10485648;28;20136;-95
2020/12/01 22:10:30;;;;;;;31.00;19.85;;;6.20;99.90;;;;;;10446599;28;20118;-95
2020/12/01 22:15:42;;;;;;;36.95;21.92;;;6.20;99.90;;;;;;10467777;28;20056;-95
2020/12/01 22:20:50;;;;;;;33.35;20.42;;;6.20;99.90;;;;;;10484613;28;20063;-95
2020/12/01 22:26:24;;;;;;;32.03;20.60;;;6.10;99.90;;;;;;10466941;28;20154;-94
2020/12/01 22:32:07;;;;;;;35.42;20.63;;;6.10;99.90;;;;;;10466908;28;20080;-95
2020/12/01 22:37:09;;;;;;;29.73;19.42;;;6.10;99.90;;;;;;10483125;28;20052;-95
2020/12/01 22:42:21;;;;;;;25.85;17.10;;;6.10;99.90;;;;;;10463038;22;20499;-95
2020/12/01 22:47:48;;;;;;;27.57;19.00;;;6.10;99.90;;;;;;10418101;28;20045;-95
2020/12/01 22:53:48;;;;;;;39.28;20.17;;;6.10;99.90;;;;;;10433067;28;20132;-95
2020/12/01 22:58:51;;;;;;;32.90;19.92;;;6.10;99.90;;;;;;10384226;28;20172;-95
2020/12/01 23:03:56;;;;;;;33.25;20.20;;;6.10;99.90;;;;;;10400533;28;20081;-95
2020/12/01 23:09:21;;;;;;;36.17;19.73;;;6.00;99.90;;;;;;10400522;28;20132;-95
2020/12/01 23:14:40;;;;;;;38.17;20.63;;;6.10;99.90;;;;;;10416301;28;20057;-95
2020/12/01 23:19:41;;;;;;;40.78;22.00;;;6.10;99.90;;;;;;10416923;28;20084;-94
2020/12/01 23:24:43;;;;;;;34.13;19.75;;;6.00;99.90;;;;;;10399937;28;20081;-95
2020/12/01 23:30:09;;;;;;;33.45;20.08;;;6.00;99.90;;;;;;10399065;28;20140;-95
2020/12/01 23:35:15;;;;;;;29.67;18.20;;;6.00;99.90;;;;;;10399944;28;20527;-95
2020/12/01 23:40:18;;;;;;;32.33;20.48;;;6.00;99.90;;;;;;10403851;28;20492;-95
2020/12/01 23:45:24;;;;;;;35.25;20.90;;;6.00;99.90;;;;;;10395047;28;20406;-95
2020/12/01 23:50:34;;;;;;;32.72;21.38;;;6.00;99.90;;;;;;10366708;28;20056;-94
2020/12/01 23:55:35;;;;;;;32.83;20.80;;;6.00;99.90;;;;;;10366924;28;20412;-95
